createdAt,value
2024-05-09T00:00:44.375Z,75.40
2024-05-09T00:03:32.689Z,75.33
2024-05-09T00:06:01.034Z,75.14
2024-05-09T00:08:29.051Z,74.77
2024-05-09T00:10:57.071Z,74.93
2024-05-09T00:13:25.161Z,74.83
2024-05-09T00:15:52.884Z,74.49
2024-05-09T00:18:20.818Z,74.46
2024-05-09T00:20:49.298Z,74.44
2024-05-09T00:23:17.235Z,74.59
2024-05-09T00:25:45.627Z,74.54
2024-05-09T00:28:13.478Z,74.40
2024-05-09T00:30:41.649Z,74.41
2024-05-09T00:33:10.938Z,74.51
2024-05-09T00:35:41.289Z,74.44
2024-05-09T00:38:10.303Z,74.41
2024-05-09T00:40:41.716Z,74.41
2024-05-09T00:43:12.953Z,74.23
2024-05-09T00:45:42.178Z,74.18
2024-05-09T00:48:13.977Z,74.09
2024-05-09T00:50:45.383Z,74.12
2024-05-09T00:53:15.859Z,74.20
2024-05-09T00:55:44.740Z,74.17
2024-05-09T00:58:16.254Z,74.06
2024-05-09T01:00:44.669Z,73.90
2024-05-09T01:03:14.064Z,73.95
2024-05-09T01:05:44.036Z,74.21
2024-05-09T01:08:12.738Z,74.36
2024-05-09T01:10:44.841Z,74.42
2024-05-09T01:13:14.157Z,74.35
2024-05-09T01:15:42.866Z,74.57
2024-05-09T01:18:12.424Z,74.45
2024-05-09T01:20:44.161Z,74.20
2024-05-09T01:23:15.358Z,74.13
2024-05-09T01:25:46.122Z,74.01
2024-05-09T01:28:15.051Z,74.17
2024-05-09T01:30:43.503Z,74.04
2024-05-09T01:33:12.519Z,74.18
2024-05-09T01:35:42.570Z,74.19
2024-05-09T01:38:13.234Z,74.29
2024-05-09T01:40:43.866Z,73.97
2024-05-09T01:43:12.365Z,74.12
2024-05-09T01:45:40.754Z,73.95
2024-05-09T01:48:10.024Z,73.96
2024-05-09T01:50:41.744Z,73.74
2024-05-09T01:53:14.096Z,73.79
2024-05-09T01:55:43.894Z,74.15
2024-05-09T01:58:11.814Z,74.21
2024-05-09T02:00:43.565Z,74.29
2024-05-09T02:03:16.363Z,74.00
2024-05-09T02:05:48.429Z,73.99
2024-05-09T02:08:18.953Z,74.06
2024-05-09T02:10:49.517Z,73.84
2024-05-09T02:13:18.327Z,73.86
2024-05-09T02:15:46.629Z,73.97
2024-05-09T02:18:15.041Z,73.90
2024-05-09T02:20:43.708Z,74.11
2024-05-09T02:23:12.611Z,74.15
2024-05-09T02:25:43.896Z,74.27
2024-05-09T02:28:11.891Z,74.32
2024-05-09T02:30:41.748Z,74.30
2024-05-09T02:33:12.540Z,74.48
2024-05-09T02:35:44.023Z,74.59
2024-05-09T02:38:12.914Z,74.61
2024-05-09T02:40:41.576Z,74.73
2024-05-09T02:43:12.649Z,74.86
2024-05-09T02:45:41.251Z,75.04
2024-05-09T02:48:13.643Z,75.30
2024-05-09T02:50:44.274Z,75.21
2024-05-09T02:53:13.248Z,75.34
2024-05-09T02:55:42.446Z,75.28
2024-05-09T02:58:11.135Z,75.33
2024-05-09T03:00:41.818Z,75.43
2024-05-09T03:03:13.472Z,75.38
2024-05-09T03:05:45.003Z,75.23
2024-05-09T03:08:13.551Z,75.18
2024-05-09T03:10:41.648Z,75.35
2024-05-09T03:13:12.171Z,75.38
2024-05-09T03:15:41.091Z,75.45
2024-05-09T03:18:09.164Z,75.53
2024-05-09T03:20:37.778Z,75.28
2024-05-09T03:23:07.841Z,75.06
2024-05-09T03:25:36.467Z,74.88
2024-05-09T03:28:04.643Z,74.78
2024-05-09T03:30:40.013Z,74.88
2024-05-09T03:33:11.754Z,75.02
2024-05-09T03:35:39.963Z,74.85
2024-05-09T03:38:08.016Z,74.93
2024-05-09T03:40:35.903Z,75.03
2024-05-09T03:43:03.835Z,75.02
2024-05-09T03:45:31.627Z,75.16
2024-05-09T03:47:59.643Z,75.34
2024-05-09T03:50:33.816Z,75.10
2024-05-09T03:53:04.296Z,74.85
2024-05-09T03:55:32.275Z,74.62
2024-05-09T03:58:00.407Z,74.42
2024-05-09T04:00:35.655Z,74.36
2024-05-09T04:03:09.685Z,74.23
2024-05-09T04:05:41.758Z,73.93
2024-05-09T04:08:11.302Z,73.78
2024-05-09T04:10:39.407Z,73.96
2024-05-09T04:13:07.292Z,74.12
2024-05-09T04:15:35.160Z,73.80
2024-05-09T04:18:03.320Z,73.83
2024-05-09T04:20:38.131Z,73.63
2024-05-09T04:23:13.547Z,73.56
2024-05-09T04:25:44.217Z,73.35
2024-05-09T04:28:14.721Z,73.09
2024-05-09T04:30:43.374Z,72.89
2024-05-09T04:33:15.193Z,72.73
2024-05-09T04:35:44.043Z,72.56
2024-05-09T04:38:13.832Z,72.38
2024-05-09T04:40:42.576Z,72.12
2024-05-09T04:43:19.296Z,72.09
2024-05-09T04:45:47.274Z,71.97
2024-05-09T04:48:16.507Z,71.76
2024-05-09T04:50:44.910Z,71.52
2024-05-09T04:53:16.382Z,71.46
2024-05-09T04:55:44.819Z,71.17
2024-05-09T04:58:12.634Z,70.95
2024-05-09T05:00:41.548Z,71.02
2024-05-09T05:03:13.813Z,71.14
2024-05-09T05:05:45.683Z,70.83
2024-05-09T05:08:19.171Z,70.63
2024-05-09T05:10:48.522Z,70.31
2024-05-09T05:13:20.746Z,70.35
2024-05-09T05:15:52.223Z,70.19
2024-05-09T05:18:20.343Z,69.85
2024-05-09T05:20:49.135Z,69.61
2024-05-09T05:23:19.899Z,69.27
2024-05-09T05:25:49.655Z,69.00
2024-05-09T05:28:18.081Z,68.75
2024-05-09T05:30:46.487Z,68.13
2024-05-09T05:33:15.967Z,68.11
2024-05-09T05:35:44.213Z,67.62
2024-05-09T05:38:12.286Z,67.07
2024-05-09T05:40:41.004Z,67.32
2024-05-09T05:43:16.440Z,67.12
2024-05-09T05:45:45.037Z,66.79
2024-05-09T05:48:16.059Z,66.84
2024-05-09T05:50:44.433Z,66.88
2024-05-09T05:53:12.504Z,66.89
2024-05-09T05:55:41.535Z,66.87
2024-05-09T05:58:13.250Z,66.47
2024-05-09T06:00:42.101Z,67.03
2024-05-09T06:03:13.433Z,67.45
2024-05-09T06:05:46.514Z,67.59
2024-05-09T06:08:14.844Z,67.03
2024-05-09T06:10:43.671Z,67.14
2024-05-09T06:13:13.309Z,66.74
2024-05-09T06:15:42.334Z,66.47
2024-05-09T06:18:12.078Z,66.41
2024-05-09T06:20:42.622Z,66.53
2024-05-09T06:23:12.870Z,66.31
2024-05-09T06:25:42.386Z,66.21
2024-05-09T06:28:11.010Z,65.80
2024-05-09T06:30:42.311Z,65.19
2024-05-09T06:33:14.047Z,64.95
2024-05-09T06:35:44.819Z,64.88
2024-05-09T06:38:13.780Z,64.12
2024-05-09T06:40:43.814Z,63.30
2024-05-09T06:43:18.250Z,63.01
2024-05-09T06:45:49.190Z,62.66
2024-05-09T06:48:21.634Z,63.36
2024-05-09T06:50:50.732Z,63.51
2024-05-09T06:53:22.667Z,63.64
2024-05-09T06:55:50.451Z,64.04
2024-05-09T06:58:18.506Z,64.13
2024-05-09T07:00:46.284Z,63.87
2024-05-09T07:03:17.885Z,63.35
2024-05-09T07:05:48.629Z,62.97
2024-05-09T07:08:18.217Z,62.09
2024-05-09T07:10:46.856Z,61.80
2024-05-09T07:13:15.742Z,61.12
2024-05-09T07:15:43.643Z,60.65
2024-05-09T07:18:13.798Z,59.97
2024-05-09T07:20:42.840Z,59.59
2024-05-09T07:23:12.930Z,59.34
2024-05-09T07:25:41.663Z,59.62
2024-05-09T07:28:20.416Z,58.70
2024-05-09T07:30:48.339Z,58.78
2024-05-09T07:33:17.766Z,57.92
2024-05-09T07:35:46.122Z,57.84
2024-05-09T07:38:15.056Z,57.64
2024-05-09T07:40:42.978Z,56.96
2024-05-09T07:43:11.954Z,56.58
2024-05-09T07:45:49.356Z,56.34
2024-05-09T07:52:37.887Z,56.29
2024-05-09T07:53:49.110Z,55.84
2024-05-09T07:56:22.586Z,55.51
2024-05-09T07:58:53.838Z,54.60
2024-05-09T08:01:22.078Z,54.46
2024-05-09T08:03:50.649Z,54.14
2024-05-09T08:06:19.071Z,53.68
2024-05-09T08:08:47.391Z,52.93
2024-05-09T08:11:15.885Z,52.79
2024-05-09T08:13:43.932Z,53.22
2024-05-09T08:16:14.310Z,52.53
2024-05-09T08:18:42.537Z,52.19
2024-05-09T08:21:10.431Z,52.00
2024-05-09T08:23:38.445Z,52.09
2024-05-09T08:26:08.551Z,52.63
2024-05-09T08:28:36.284Z,52.93
2024-05-09T08:31:06.946Z,53.02
2024-05-09T08:33:35.410Z,53.31
2024-05-09T08:36:03.715Z,53.21
2024-05-09T08:38:32.162Z,53.62
2024-05-09T08:41:03.365Z,53.50
2024-05-09T08:43:31.136Z,53.57
2024-05-09T08:45:59.940Z,53.12
2024-05-09T08:48:30.149Z,53.06
2024-05-09T08:50:59.295Z,52.46
2024-05-09T08:53:27.750Z,51.97
2024-05-09T08:56:00.893Z,51.15
2024-05-09T08:58:33.340Z,51.07
2024-05-09T09:01:03.789Z,50.71
2024-05-09T09:03:34.244Z,50.05
2024-05-09T09:06:06.794Z,49.93
2024-05-09T09:08:41.324Z,49.97
2024-05-09T09:11:09.388Z,49.26
2024-05-09T09:13:37.854Z,49.03
2024-05-09T09:16:06.836Z,48.44
2024-05-09T09:18:34.972Z,48.20
2024-05-09T09:21:03.311Z,47.46
2024-05-09T09:23:31.324Z,47.02
2024-05-09T09:26:00.208Z,46.80
2024-05-09T09:28:29.480Z,46.25
2024-05-09T09:31:04.637Z,46.60
2024-05-09T09:33:35.611Z,45.87
2024-05-09T09:36:06.291Z,45.33
2024-05-09T09:38:37.444Z,45.23
2024-05-09T09:41:08.176Z,45.76
2024-05-09T09:43:36.942Z,45.75
2024-05-09T09:46:08.635Z,45.66
2024-05-09T09:48:40.609Z,44.85
2024-05-09T09:51:09.242Z,44.86
2024-05-09T09:53:38.280Z,44.79
2024-05-09T09:56:10.348Z,44.72
2024-05-09T09:58:41.420Z,44.38
2024-05-09T10:01:09.865Z,43.75
2024-05-09T10:03:38.561Z,43.46
2024-05-09T10:06:09.532Z,42.88
2024-05-09T10:08:38.048Z,42.84
2024-05-09T10:11:06.312Z,42.03
2024-05-09T10:13:37.383Z,41.90
2024-05-09T10:16:10.572Z,41.66
2024-05-09T10:18:40.577Z,41.84
2024-05-09T10:21:19.692Z,41.27
2024-05-09T10:24:18.992Z,41.25
2024-05-09T10:26:55.124Z,40.70
2024-05-09T10:29:25.564Z,40.96
2024-05-09T10:31:53.608Z,42.06
2024-05-09T10:34:24.436Z,42.55
2024-05-09T10:36:54.444Z,43.05
2024-05-09T10:39:22.583Z,43.33
2024-05-09T10:41:50.574Z,43.56
2024-05-09T10:44:18.795Z,43.45
2024-05-09T10:46:47.211Z,42.83
2024-05-09T10:49:15.262Z,42.62
2024-05-09T10:51:46.383Z,43.09
2024-05-09T10:54:14.199Z,43.28
2024-05-09T10:56:42.304Z,43.63
2024-05-09T10:59:12.870Z,43.51
2024-05-09T11:01:41.034Z,43.76
2024-05-09T11:04:09.176Z,42.77
2024-05-09T11:06:38.227Z,43.09
2024-05-09T11:09:06.479Z,41.63
2024-05-09T11:11:34.609Z,42.16
2024-05-09T11:14:12.244Z,41.95
2024-05-09T11:16:40.229Z,41.70
2024-05-09T11:19:13.462Z,41.34
2024-05-09T11:21:41.453Z,41.83
2024-05-09T11:24:11.463Z,42.15
2024-05-09T11:26:39.727Z,42.34
2024-05-09T11:29:07.631Z,43.56
2024-05-09T11:31:48.043Z,45.05
2024-05-09T11:34:16.264Z,46.13
2024-05-09T11:36:44.261Z,46.51
2024-05-09T11:39:14.821Z,47.56
2024-05-09T11:41:43.083Z,48.02
2024-05-09T11:44:11.452Z,48.58
2024-05-09T11:46:39.463Z,48.61
2024-05-09T11:49:09.592Z,48.91
2024-05-09T11:51:37.628Z,48.96
2024-05-09T11:54:05.366Z,49.44
2024-05-09T11:56:33.515Z,49.96
2024-05-09T11:59:03.331Z,50.36
2024-05-09T12:01:31.120Z,49.90
2024-05-09T12:03:59.453Z,50.07
2024-05-09T12:06:27.570Z,50.23
2024-05-09T12:08:56.332Z,50.80
2024-05-09T12:11:24.134Z,51.13
2024-05-09T12:13:51.994Z,50.55
2024-05-09T12:16:19.970Z,48.97
2024-05-09T12:18:48.128Z,48.75
2024-05-09T12:21:17.334Z,48.36
2024-05-09T12:23:45.047Z,47.88
2024-05-09T12:26:13.131Z,47.81
2024-05-09T12:28:41.000Z,47.76
2024-05-09T12:31:08.916Z,47.26
2024-05-09T12:33:37.222Z,46.77
2024-05-09T12:36:05.839Z,46.52
2024-05-09T12:38:33.598Z,45.92
2024-05-09T12:41:02.212Z,45.41
2024-05-09T12:43:30.332Z,43.96
2024-05-09T12:45:58.652Z,42.55
2024-05-09T12:48:26.382Z,41.71
2024-05-09T12:50:57.401Z,40.82
2024-05-09T12:53:25.235Z,40.00
2024-05-09T12:55:57.044Z,39.27
2024-05-09T12:58:28.561Z,37.64
2024-05-09T13:00:56.753Z,37.77
2024-05-09T13:03:24.848Z,38.01
2024-05-09T13:05:53.812Z,38.47
2024-05-09T13:08:22.126Z,38.30
2024-05-09T13:10:50.650Z,38.58
2024-05-09T13:13:18.709Z,39.18
2024-05-09T13:15:46.563Z,39.68
2024-05-09T13:18:14.929Z,40.27
2024-05-09T13:20:44.244Z,41.06
2024-05-09T13:23:11.987Z,41.53
2024-05-09T13:25:40.428Z,41.95
2024-05-09T13:28:08.814Z,43.05
2024-05-09T13:30:40.843Z,44.28
2024-05-09T13:33:12.188Z,45.69
2024-05-09T13:35:48.703Z,46.52
2024-05-09T13:38:21.142Z,47.21
2024-05-09T13:40:50.372Z,47.71
2024-05-09T13:43:19.263Z,48.39
2024-05-09T13:45:47.644Z,48.84
2024-05-09T13:48:15.932Z,49.46
2024-05-09T13:50:44.044Z,49.64
2024-05-09T13:53:12.094Z,49.45
2024-05-09T13:55:40.764Z,49.81
2024-05-09T13:58:09.602Z,50.27
2024-05-09T14:00:46.585Z,50.97
2024-05-09T14:03:20.434Z,51.37
2024-05-09T14:05:51.390Z,51.47
2024-05-09T14:08:21.749Z,51.61
2024-05-09T14:10:50.472Z,51.35
2024-05-09T14:13:20.011Z,51.67
2024-05-09T14:15:48.405Z,52.00
2024-05-09T14:18:17.249Z,52.23
2024-05-09T14:20:45.026Z,51.49
2024-05-09T14:23:12.911Z,51.17
2024-05-09T14:25:42.902Z,50.82
2024-05-09T14:28:12.634Z,50.76
2024-05-09T14:30:42.057Z,50.85
2024-05-09T14:33:11.424Z,51.00
2024-05-09T14:35:39.758Z,50.76
2024-05-09T14:38:08.782Z,50.54
2024-05-09T14:40:42.378Z,50.00
2024-05-09T14:43:14.102Z,49.52
2024-05-09T14:45:43.769Z,49.62
2024-05-09T14:48:15.676Z,49.33
2024-05-09T14:50:44.157Z,48.46
2024-05-09T14:53:13.196Z,47.22
2024-05-09T14:55:43.316Z,45.61
2024-05-09T14:58:12.842Z,44.80
2024-05-09T15:00:46.266Z,44.49
2024-05-09T15:03:19.389Z,44.27
2024-05-09T15:05:48.077Z,44.15
2024-05-09T15:08:17.454Z,44.12
2024-05-09T15:10:45.482Z,44.15
2024-05-09T15:13:16.379Z,44.37
2024-05-09T15:15:45.470Z,44.31
2024-05-09T15:18:14.604Z,44.10
2024-05-09T15:20:44.556Z,43.98
2024-05-09T15:23:12.612Z,43.24
2024-05-09T15:25:40.744Z,42.31
2024-05-09T15:28:08.782Z,42.13
2024-05-09T15:30:37.613Z,41.88
2024-05-09T15:33:07.202Z,41.23
2024-05-09T15:35:40.904Z,40.77
2024-05-09T15:38:09.535Z,40.38
2024-05-09T15:40:40.080Z,39.05
2024-05-09T15:43:11.257Z,38.40
2024-05-09T15:45:41.353Z,38.00
2024-05-09T15:48:10.738Z,37.44
2024-05-09T15:50:41.369Z,36.54
2024-05-09T15:53:12.536Z,36.44
2024-05-09T15:55:42.552Z,36.10
2024-05-09T15:58:12.436Z,35.39
2024-05-09T16:00:44.033Z,35.63
2024-05-09T16:03:14.706Z,35.63
2024-05-09T16:05:45.490Z,35.56
2024-05-09T16:08:15.483Z,36.12
2024-05-09T16:10:45.828Z,35.53
2024-05-09T16:13:15.300Z,36.23
2024-05-09T16:15:44.047Z,36.78
2024-05-09T16:18:12.480Z,37.28
2024-05-09T16:20:42.571Z,37.16
2024-05-09T16:23:12.872Z,37.06
2024-05-09T16:25:45.979Z,37.56
2024-05-09T16:28:13.793Z,37.42
2024-05-09T16:30:41.706Z,37.90
2024-05-09T16:33:11.573Z,37.50
2024-05-09T16:35:40.167Z,37.85
2024-05-09T16:38:08.516Z,38.15
2024-05-09T16:40:40.214Z,38.61
2024-05-09T16:43:12.936Z,39.18
2024-05-09T16:45:46.332Z,39.68
2024-05-09T16:48:14.835Z,40.04
2024-05-09T16:50:43.531Z,40.35
2024-05-09T16:53:11.469Z,40.84
2024-05-09T16:55:39.688Z,41.41
2024-05-09T16:58:08.565Z,41.69
2024-05-09T17:00:41.739Z,42.18
2024-05-09T17:03:14.804Z,42.68
2024-05-09T17:05:46.639Z,43.06
2024-05-09T17:08:16.852Z,43.41
2024-05-09T17:10:45.004Z,43.83
2024-05-09T17:13:13.157Z,43.94
2024-05-09T17:15:41.445Z,44.43
2024-05-09T17:18:10.055Z,44.86
2024-05-09T17:20:38.246Z,45.50
2024-05-09T17:23:15.504Z,45.85
2024-05-09T17:25:43.772Z,46.36
2024-05-09T17:28:12.549Z,47.00
2024-05-09T17:30:42.210Z,47.37
2024-05-09T17:33:12.890Z,47.80
2024-05-09T17:35:41.736Z,48.32
2024-05-09T17:38:09.636Z,48.73
2024-05-09T17:40:38.948Z,49.35
2024-05-09T17:43:09.981Z,49.68
2024-05-09T17:45:40.905Z,50.24
2024-05-09T17:48:11.952Z,50.59
2024-05-09T17:50:41.624Z,51.07
2024-05-09T17:53:10.842Z,51.47
2024-05-09T17:55:40.239Z,51.92
2024-05-09T17:58:09.619Z,52.37
2024-05-09T18:00:40.715Z,52.77
2024-05-09T18:03:12.040Z,53.25
2024-05-09T18:05:43.962Z,53.71
2024-05-09T18:08:14.335Z,54.83
2024-05-09T18:10:42.980Z,55.94
2024-05-09T18:13:12.351Z,56.48
2024-05-09T18:15:41.193Z,56.83
2024-05-09T18:18:10.496Z,57.16
2024-05-09T18:20:43.883Z,57.63
2024-05-09T18:23:18.476Z,58.12
2024-05-09T18:25:48.042Z,58.15
2024-05-09T18:28:17.084Z,58.30
2024-05-09T18:30:45.519Z,58.55
2024-05-09T18:33:14.040Z,58.67
2024-05-09T18:35:43.882Z,59.23
2024-05-09T18:38:11.983Z,59.69
2024-05-09T18:40:42.018Z,60.12
2024-05-09T18:43:11.727Z,60.64
2024-05-09T18:45:40.637Z,61.06
2024-05-09T18:48:12.214Z,61.28
2024-05-09T18:50:41.391Z,61.51
2024-05-09T18:53:13.093Z,61.50
2024-05-09T18:55:42.460Z,61.50
2024-05-09T18:58:11.197Z,61.70
2024-05-09T19:00:41.811Z,61.62
2024-05-09T19:03:14.139Z,61.61
2024-05-09T19:05:44.669Z,61.66
2024-05-09T19:08:15.063Z,61.57
2024-05-09T19:10:45.216Z,61.34
2024-05-09T19:13:14.488Z,61.29
2024-05-09T19:15:43.819Z,61.18
2024-05-09T19:18:14.210Z,61.12
2024-05-09T19:20:44.170Z,61.32
2024-05-09T19:23:12.610Z,61.47
2024-05-09T19:25:40.776Z,61.53
2024-05-09T19:28:09.048Z,61.52
2024-05-09T19:30:41.844Z,61.59
2024-05-09T19:33:13.224Z,61.56
2024-05-09T19:35:43.059Z,61.62
2024-05-09T19:38:12.010Z,61.46
2024-05-09T19:40:41.378Z,61.37
2024-05-09T19:43:09.819Z,61.18
2024-05-09T19:45:38.212Z,61.15
2024-05-09T19:48:06.949Z,61.38
2024-05-09T19:50:41.962Z,61.35
2024-05-09T19:53:14.559Z,61.50
2024-05-09T19:55:43.401Z,61.57
2024-05-09T19:58:12.053Z,61.64
2024-05-09T20:00:43.071Z,61.90
2024-05-09T20:03:15.359Z,62.24
2024-05-09T20:05:46.311Z,62.40
2024-05-09T20:08:14.599Z,62.66
2024-05-09T20:10:44.342Z,62.66
2024-05-09T20:13:13.537Z,62.77
2024-05-09T20:15:42.301Z,62.89
2024-05-09T20:18:10.773Z,63.12
2024-05-09T20:20:42.390Z,63.23
2024-05-09T20:23:12.867Z,63.49
2024-05-09T20:25:41.897Z,63.49
2024-05-09T20:28:10.656Z,63.61
2024-05-09T20:30:39.077Z,63.58
2024-05-09T20:33:08.644Z,63.55
2024-05-09T20:35:37.819Z,63.62
2024-05-09T20:38:06.131Z,63.75
2024-05-09T20:40:37.704Z,63.54
2024-05-09T20:43:09.458Z,63.49
2024-05-09T20:45:38.249Z,63.40
2024-05-09T20:48:07.410Z,63.53
2024-05-09T20:50:39.980Z,63.56
2024-05-09T20:53:14.762Z,63.57
2024-05-09T20:55:44.410Z,63.58
2024-05-09T20:58:13.796Z,63.66
2024-05-09T21:00:44.794Z,63.72
2024-05-09T21:03:16.795Z,63.84
2024-05-09T21:05:47.257Z,63.96
2024-05-09T21:08:16.063Z,63.94
2024-05-09T21:10:44.572Z,64.20
2024-05-09T21:13:12.993Z,64.16
2024-05-09T21:15:41.252Z,64.39
2024-05-09T21:18:09.317Z,64.70
2024-05-09T21:20:37.456Z,64.84
2024-05-09T21:23:05.678Z,65.06
2024-05-09T21:25:33.854Z,65.33
2024-05-09T21:28:02.024Z,65.16
2024-05-09T21:30:38.629Z,65.12
2024-05-09T21:33:13.402Z,65.29
2024-05-09T21:35:44.014Z,65.10
2024-05-09T21:38:14.380Z,64.84
2024-05-09T21:40:43.376Z,64.77
2024-05-09T21:43:11.273Z,64.86
2024-05-09T21:45:39.410Z,65.09
2024-05-09T21:48:08.202Z,65.23
2024-05-09T21:50:40.337Z,65.17
2024-05-09T21:53:12.503Z,64.95
2024-05-09T21:55:42.510Z,64.92
2024-05-09T21:58:12.152Z,64.75
2024-05-09T22:00:42.802Z,64.72
2024-05-09T22:03:12.077Z,64.78
2024-05-09T22:05:44.277Z,64.69
2024-05-09T22:08:12.927Z,64.69
2024-05-09T22:10:40.775Z,64.66
2024-05-09T22:13:09.148Z,64.70
2024-05-09T22:15:39.933Z,64.61
2024-05-09T22:18:10.615Z,64.60
2024-05-09T22:20:46.596Z,64.66
2024-05-09T22:23:15.525Z,64.70
2024-05-09T22:25:43.791Z,64.74
2024-05-09T22:28:15.092Z,64.78
2024-05-09T22:30:46.007Z,65.03
2024-05-09T22:33:15.182Z,64.94
2024-05-09T22:35:43.161Z,65.04
2024-05-09T22:38:11.039Z,65.12
2024-05-09T22:40:47.350Z,65.20
2024-05-09T22:43:23.898Z,65.31
2024-05-09T22:45:56.586Z,65.17
2024-05-09T22:48:26.524Z,65.29
2024-05-09T22:50:54.737Z,65.17
2024-05-09T22:53:26.801Z,65.05
2024-05-09T22:55:54.760Z,65.02
2024-05-09T22:58:23.153Z,65.06
2024-05-09T23:00:51.647Z,64.94
2024-05-09T23:03:21.121Z,64.65
2024-05-09T23:05:49.537Z,64.56
2024-05-09T23:08:17.650Z,64.53
2024-05-09T23:10:45.977Z,64.90
2024-05-09T23:13:14.228Z,65.50
2024-05-09T23:15:42.087Z,66.04
2024-05-09T23:18:10.143Z,66.75
2024-05-09T23:20:39.907Z,68.02
2024-05-09T23:23:10.523Z,67.90
2024-05-09T23:25:43.304Z,69.45
2024-05-09T23:28:11.952Z,69.88
2024-05-09T23:30:41.154Z,70.19
2024-05-09T23:33:14.681Z,70.03
2024-05-09T23:35:44.297Z,70.86
2024-05-09T23:38:13.579Z,71.56
2024-05-09T23:40:42.976Z,71.87
2024-05-09T23:43:12.776Z,71.91
2024-05-09T23:45:42.149Z,71.88
2024-05-09T23:48:10.908Z,71.78
2024-05-09T23:50:40.292Z,71.56
2024-05-09T23:53:10.553Z,71.64
2024-05-09T23:55:39.082Z,71.81
2024-05-09T23:58:08.035Z,71.64
